sensor_id;sensor_type;location;lat;lon;timestamp;temperature;humidity
67196;DHT22;54122;53.538;49.366;2023-02-18T00:01:17;-5.40;87.10
67196;DHT22;54122;53.538;49.366;2023-02-18T00:03:44;-5.40;85.90
67196;DHT22;54122;53.538;49.366;2023-02-18T00:06:12;-5.30;85.90
67196;DHT22;54122;53.538;49.366;2023-02-18T00:08:39;-5.30;85.80
67196;DHT22;54122;53.538;49.366;2023-02-18T00:11:05;-5.40;85.70
67196;DHT22;54122;53.538;49.366;2023-02-18T00:13:32;-5.30;85.90
67196;DHT22;54122;53.538;49.366;2023-02-18T00:16:07;-5.30;85.90
67196;DHT22;54122;53.538;49.366;2023-02-18T00:18:34;-5.30;85.80
67196;DHT22;54122;53.538;49.366;2023-02-18T00:21:02;-5.30;85.80
67196;DHT22;54122;53.538;49.366;2023-02-18T00:23:29;-5.30;85.80
67196;DHT22;54122;53.538;49.366;2023-02-18T00:26:03;-5.30;85.80
67196;DHT22;54122;53.538;49.366;2023-02-18T00:28:30;-5.30;85.80
67196;DHT22;54122;53.538;49.366;2023-02-18T00:30:56;-5.30;85.80
67196;DHT22;54122;53.538;49.366;2023-02-18T00:33:22;-5.30;85.80
67196;DHT22;54122;53.538;49.366;2023-02-18T00:35:48;-5.30;85.70
67196;DHT22;54122;53.538;49.366;2023-02-18T00:38:15;-5.30;85.70
67196;DHT22;54122;53.538;49.366;2023-02-18T00:40:42;-5.30;85.70
67196;DHT22;54122;53.538;49.366;2023-02-18T00:43:08;-5.30;85.70
67196;DHT22;54122;53.538;49.366;2023-02-18T00:45:35;-5.30;85.60
67196;DHT22;54122;53.538;49.366;2023-02-18T00:48:01;-5.30;85.60
67196;DHT22;54122;53.538;49.366;2023-02-18T00:50:27;-5.30;85.60
67196;DHT22;54122;53.538;49.366;2023-02-18T00:52:53;-5.30;85.70
67196;DHT22;54122;53.538;49.366;2023-02-18T00:55:19;-5.30;85.60
67196;DHT22;54122;53.538;49.366;2023-02-18T00:57:45;-5.30;85.50
67196;DHT22;54122;53.538;49.366;2023-02-18T01:00:12;-5.30;85.30
67196;DHT22;54122;53.538;49.366;2023-02-18T01:02:38;-5.40;85.20
67196;DHT22;54122;53.538;49.366;2023-02-18T01:05:05;-5.40;85.30
67196;DHT22;54122;53.538;49.366;2023-02-18T01:07:31;-5.40;85.40
67196;DHT22;54122;53.538;49.366;2023-02-18T01:09:57;-5.40;85.20
67196;DHT22;54122;53.538;49.366;2023-02-18T01:12:23;-5.50;84.90
67196;DHT22;54122;53.538;49.366;2023-02-18T01:14:49;-5.50;85.00
67196;DHT22;54122;53.538;49.366;2023-02-18T01:17:15;-5.60;85.00
67196;DHT22;54122;53.538;49.366;2023-02-18T01:19:41;-5.60;85.20
67196;DHT22;54122;53.538;49.366;2023-02-18T01:22:08;-5.60;85.30
67196;DHT22;54122;53.538;49.366;2023-02-18T01:24:34;-5.60;85.20
67196;DHT22;54122;53.538;49.366;2023-02-18T01:27:00;-5.70;85.20
67196;DHT22;54122;53.538;49.366;2023-02-18T01:29:26;-5.70;85.30
67196;DHT22;54122;53.538;49.366;2023-02-18T01:31:53;-5.70;85.20
67196;DHT22;54122;53.538;49.366;2023-02-18T01:34:19;-5.70;85.20
67196;DHT22;54122;53.538;49.366;2023-02-18T01:36:45;-5.70;85.10
67196;DHT22;54122;53.538;49.366;2023-02-18T01:39:11;-5.70;85.10
67196;DHT22;54122;53.538;49.366;2023-02-18T01:41:37;-5.70;85.10
67196;DHT22;54122;53.538;49.366;2023-02-18T01:44:22;-5.70;85.20
67196;DHT22;54122;53.538;49.366;2023-02-18T01:46:48;-5.70;85.40
67196;DHT22;54122;53.538;49.366;2023-02-18T01:49:35;-5.70;85.40
67196;DHT22;54122;53.538;49.366;2023-02-18T01:52:22;-5.70;85.20
67196;DHT22;54122;53.538;49.366;2023-02-18T01:54:52;-5.80;85.10
67196;DHT22;54122;53.538;49.366;2023-02-18T01:57:28;-5.80;85.00
67196;DHT22;54122;53.538;49.366;2023-02-18T01:59:59;-5.80;85.20
67196;DHT22;54122;53.538;49.366;2023-02-18T02:02:27;-5.80;84.90
67196;DHT22;54122;53.538;49.366;2023-02-18T02:04:54;-5.80;84.90
67196;DHT22;54122;53.538;49.366;2023-02-18T02:07:23;-5.80;85.00
67196;DHT22;54122;53.538;49.366;2023-02-18T02:09:52;-5.80;84.90
67196;DHT22;54122;53.538;49.366;2023-02-18T02:16:05;-5.80;84.30
67196;DHT22;54122;53.538;49.366;2023-02-18T02:18:22;-5.80;84.30
67196;DHT22;54122;53.538;49.366;2023-02-18T02:23:51;-5.90;84.10
67196;DHT22;54122;53.538;49.366;2023-02-18T02:26:43;-5.80;83.90
67196;DHT22;54122;53.538;49.366;2023-02-18T02:32:02;-6.00;83.20
67196;DHT22;54122;53.538;49.366;2023-02-18T02:53:08;-6.30;82.10
67196;DHT22;54122;53.538;49.366;2023-02-18T02:55:36;-6.40;82.20
67196;DHT22;54122;53.538;49.366;2023-02-18T02:58:02;-6.40;82.40
67196;DHT22;54122;53.538;49.366;2023-02-18T03:01:03;-6.50;82.40
67196;DHT22;54122;53.538;49.366;2023-02-18T03:09:16;-6.60;82.70
67196;DHT22;54122;53.538;49.366;2023-02-18T03:11:58;-6.60;82.80
67196;DHT22;54122;53.538;49.366;2023-02-18T03:14:33;-6.60;83.80
67196;DHT22;54122;53.538;49.366;2023-02-18T03:17:15;-6.70;82.80
67196;DHT22;54122;53.538;49.366;2023-02-18T03:19:54;-6.70;82.80
67196;DHT22;54122;53.538;49.366;2023-02-18T03:22:31;-6.70;82.80
67196;DHT22;54122;53.538;49.366;2023-02-18T03:24:59;-6.80;82.70
67196;DHT22;54122;53.538;49.366;2023-02-18T03:30:14;-6.80;82.90
67196;DHT22;54122;53.538;49.366;2023-02-18T03:32:41;-6.90;82.70
67196;DHT22;54122;53.538;49.366;2023-02-18T03:35:10;-6.90;82.80
67196;DHT22;54122;53.538;49.366;2023-02-18T03:37:42;-7.00;83.70
67196;DHT22;54122;53.538;49.366;2023-02-18T03:40:11;-7.00;82.80
67196;DHT22;54122;53.538;49.366;2023-02-18T03:42:37;-7.00;82.90
67196;DHT22;54122;53.538;49.366;2023-02-18T03:45:04;-7.00;82.90
67196;DHT22;54122;53.538;49.366;2023-02-18T03:47:30;-7.10;82.90
67196;DHT22;54122;53.538;49.366;2023-02-18T03:49:56;-7.10;82.90
67196;DHT22;54122;53.538;49.366;2023-02-18T03:52:22;-7.10;83.00
67196;DHT22;54122;53.538;49.366;2023-02-18T03:54:48;-7.10;83.10
67196;DHT22;54122;53.538;49.366;2023-02-18T03:57:15;-7.00;83.10
67196;DHT22;54122;53.538;49.366;2023-02-18T03:59:41;-7.00;83.00
67196;DHT22;54122;53.538;49.366;2023-02-18T04:02:08;-7.00;82.90
67196;DHT22;54122;53.538;49.366;2023-02-18T04:04:34;-7.00;82.80
67196;DHT22;54122;53.538;49.366;2023-02-18T04:07:00;-7.00;82.90
67196;DHT22;54122;53.538;49.366;2023-02-18T04:09:26;-7.00;82.90
67196;DHT22;54122;53.538;49.366;2023-02-18T04:11:52;-7.00;82.80
67196;DHT22;54122;53.538;49.366;2023-02-18T04:14:18;-7.00;82.70
67196;DHT22;54122;53.538;49.366;2023-02-18T04:16:45;-7.00;82.80
67196;DHT22;54122;53.538;49.366;2023-02-18T04:19:11;-7.00;82.90
67196;DHT22;54122;53.538;49.366;2023-02-18T04:21:37;-6.90;82.80
67196;DHT22;54122;53.538;49.366;2023-02-18T04:24:03;-6.90;82.70
67196;DHT22;54122;53.538;49.366;2023-02-18T04:26:33;-6.90;82.70
67196;DHT22;54122;53.538;49.366;2023-02-18T04:28:59;-6.80;82.50
67196;DHT22;54122;53.538;49.366;2023-02-18T04:31:25;-6.80;82.50
67196;DHT22;54122;53.538;49.366;2023-02-18T04:33:52;-6.70;82.40
67196;DHT22;54122;53.538;49.366;2023-02-18T04:36:18;-6.70;82.30
67196;DHT22;54122;53.538;49.366;2023-02-18T04:38:44;-6.60;82.10
67196;DHT22;54122;53.538;49.366;2023-02-18T04:41:10;-6.50;82.10
67196;DHT22;54122;53.538;49.366;2023-02-18T04:43:37;-6.50;81.90
67196;DHT22;54122;53.538;49.366;2023-02-18T04:46:04;-6.40;81.50
67196;DHT22;54122;53.538;49.366;2023-02-18T04:48:30;-6.40;81.30
67196;DHT22;54122;53.538;49.366;2023-02-18T04:50:56;-6.30;81.10
67196;DHT22;54122;53.538;49.366;2023-02-18T04:53:22;-6.30;81.00
67196;DHT22;54122;53.538;49.366;2023-02-18T04:55:52;-6.20;81.10
67196;DHT22;54122;53.538;49.366;2023-02-18T04:58:20;-6.10;80.90
67196;DHT22;54122;53.538;49.366;2023-02-18T05:00:46;-6.10;80.70
67196;DHT22;54122;53.538;49.366;2023-02-18T05:03:13;-6.00;80.60
67196;DHT22;54122;53.538;49.366;2023-02-18T05:05:39;-5.90;80.20
67196;DHT22;54122;53.538;49.366;2023-02-18T05:08:07;-5.90;79.70
67196;DHT22;54122;53.538;49.366;2023-02-18T05:10:33;-5.80;79.60
67196;DHT22;54122;53.538;49.366;2023-02-18T05:13:00;-5.80;79.60
67196;DHT22;54122;53.538;49.366;2023-02-18T05:15:26;-5.70;79.60
67196;DHT22;54122;53.538;49.366;2023-02-18T05:17:52;-5.60;79.40
67196;DHT22;54122;53.538;49.366;2023-02-18T05:20:18;-5.60;79.00
67196;DHT22;54122;53.538;49.366;2023-02-18T05:22:44;-5.50;79.00
67196;DHT22;54122;53.538;49.366;2023-02-18T05:25:10;-5.40;79.10
67196;DHT22;54122;53.538;49.366;2023-02-18T05:27:37;-5.40;78.90
67196;DHT22;54122;53.538;49.366;2023-02-18T05:30:03;-5.30;78.80
67196;DHT22;54122;53.538;49.366;2023-02-18T05:32:30;-5.30;78.30
67196;DHT22;54122;53.538;49.366;2023-02-18T05:34:56;-5.20;78.20
67196;DHT22;54122;53.538;49.366;2023-02-18T05:37:22;-5.20;77.90
67196;DHT22;54122;53.538;49.366;2023-02-18T05:39:48;-5.10;77.80
67196;DHT22;54122;53.538;49.366;2023-02-18T05:42:14;-5.00;77.60
67196;DHT22;54122;53.538;49.366;2023-02-18T05:44:41;-5.00;77.50
67196;DHT22;54122;53.538;49.366;2023-02-18T05:47:10;-4.90;77.30
67196;DHT22;54122;53.538;49.366;2023-02-18T05:49:39;-4.80;77.30
67196;DHT22;54122;53.538;49.366;2023-02-18T05:52:06;-4.80;77.10
67196;DHT22;54122;53.538;49.366;2023-02-18T05:54:33;-4.80;77.10
67196;DHT22;54122;53.538;49.366;2023-02-18T05:57:00;-4.70;77.10
67196;DHT22;54122;53.538;49.366;2023-02-18T05:59:26;-4.60;76.70
67196;DHT22;54122;53.538;49.366;2023-02-18T06:01:53;-4.50;76.70
67196;DHT22;54122;53.538;49.366;2023-02-18T06:04:19;-4.40;76.70
67196;DHT22;54122;53.538;49.366;2023-02-18T06:06:45;-4.30;76.20
67196;DHT22;54122;53.538;49.366;2023-02-18T06:09:12;-4.30;75.70
67196;DHT22;54122;53.538;49.366;2023-02-18T06:11:38;-4.30;75.60
67196;DHT22;54122;53.538;49.366;2023-02-18T06:14:05;-4.20;75.80
67196;DHT22;54122;53.538;49.366;2023-02-18T06:16:31;-4.00;75.90
67196;DHT22;54122;53.538;49.366;2023-02-18T06:18:57;-3.90;75.30
67196;DHT22;54122;53.538;49.366;2023-02-18T06:21:24;-3.90;74.60
67196;DHT22;54122;53.538;49.366;2023-02-18T06:23:50;-3.80;74.50
67196;DHT22;54122;53.538;49.366;2023-02-18T06:26:16;-3.70;74.40
67196;DHT22;54122;53.538;49.366;2023-02-18T06:28:42;-3.60;74.40
67196;DHT22;54122;53.538;49.366;2023-02-18T06:31:08;-3.50;74.50
67196;DHT22;54122;53.538;49.366;2023-02-18T06:33:35;-3.30;74.50
67196;DHT22;54122;53.538;49.366;2023-02-18T06:36:07;-3.20;74.20
67196;DHT22;54122;53.538;49.366;2023-02-18T06:38:34;-3.00;74.10
67196;DHT22;54122;53.538;49.366;2023-02-18T06:41:01;-2.80;73.50
67196;DHT22;54122;53.538;49.366;2023-02-18T06:43:27;-2.70;72.70
67196;DHT22;54122;53.538;49.366;2023-02-18T06:45:53;-2.50;72.20
67196;DHT22;54122;53.538;49.366;2023-02-18T06:48:19;-2.50;71.60
67196;DHT22;54122;53.538;49.366;2023-02-18T06:50:45;-2.40;71.20
67196;DHT22;54122;53.538;49.366;2023-02-18T06:53:12;-2.40;71.10
67196;DHT22;54122;53.538;49.366;2023-02-18T06:55:38;-2.40;70.70
67196;DHT22;54122;53.538;49.366;2023-02-18T06:58:04;-2.40;70.40
67196;DHT22;54122;53.538;49.366;2023-02-18T07:00:30;-2.30;70.70
67196;DHT22;54122;53.538;49.366;2023-02-18T07:02:57;-2.20;71.00
67196;DHT22;54122;53.538;49.366;2023-02-18T07:05:23;-2.00;71.00
67196;DHT22;54122;53.538;49.366;2023-02-18T07:07:49;-1.90;70.70
67196;DHT22;54122;53.538;49.366;2023-02-18T07:10:15;-1.80;70.50
67196;DHT22;54122;53.538;49.366;2023-02-18T07:12:41;-1.70;69.70
67196;DHT22;54122;53.538;49.366;2023-02-18T07:15:08;-1.40;70.00
67196;DHT22;54122;53.538;49.366;2023-02-18T07:17:38;-1.00;70.30
67196;DHT22;54122;53.538;49.366;2023-02-18T07:20:05;-0.70;69.30
67196;DHT22;54122;53.538;49.366;2023-02-18T07:22:31;-0.50;67.90
67196;DHT22;54122;53.538;49.366;2023-02-18T07:24:58;-0.50;67.10
67196;DHT22;54122;53.538;49.366;2023-02-18T07:27:24;-0.70;65.10
67196;DHT22;54122;53.538;49.366;2023-02-18T07:29:50;-1.00;66.20
67196;DHT22;54122;53.538;49.366;2023-02-18T07:32:18;-1.10;66.20
67196;DHT22;54122;53.538;49.366;2023-02-18T07:34:44;-1.10;66.20
67196;DHT22;54122;53.538;49.366;2023-02-18T07:37:10;-0.90;67.10
67196;DHT22;54122;53.538;49.366;2023-02-18T07:39:41;-0.60;67.50
67196;DHT22;54122;53.538;49.366;2023-02-18T07:42:08;-0.20;66.80
67196;DHT22;54122;53.538;49.366;2023-02-18T07:44:35;-0.10;65.30
67196;DHT22;54122;53.538;49.366;2023-02-18T07:47:03;-0.10;63.00
67196;DHT22;54122;53.538;49.366;2023-02-18T07:49:29;-0.20;63.40
67196;DHT22;54122;53.538;49.366;2023-02-18T07:51:56;-0.10;63.70
67196;DHT22;54122;53.538;49.366;2023-02-18T07:54:22;0.00;63.70
67196;DHT22;54122;53.538;49.366;2023-02-18T07:56:48;0.10;62.10
67196;DHT22;54122;53.538;49.366;2023-02-18T07:59:15;0.20;61.80
67196;DHT22;54122;53.538;49.366;2023-02-18T08:01:41;0.20;61.70
67196;DHT22;54122;53.538;49.366;2023-02-18T08:04:07;0.50;61.80
67196;DHT22;54122;53.538;49.366;2023-02-18T08:06:39;0.60;60.40
67196;DHT22;54122;53.538;49.366;2023-02-18T08:09:06;0.60;59.00
67196;DHT22;54122;53.538;49.366;2023-02-18T08:11:33;0.60;59.20
67196;DHT22;54122;53.538;49.366;2023-02-18T08:14:00;0.50;58.90
67196;DHT22;54122;53.538;49.366;2023-02-18T08:16:27;0.30;59.00
67196;DHT22;54122;53.538;49.366;2023-02-18T08:18:55;0.20;59.20
67196;DHT22;54122;53.538;49.366;2023-02-18T08:21:24;0.20;59.30
67196;DHT22;54122;53.538;49.366;2023-02-18T08:23:50;0.20;59.50
67196;DHT22;54122;53.538;49.366;2023-02-18T08:26:17;0.10;59.30
67196;DHT22;54122;53.538;49.366;2023-02-18T08:28:45;0.10;59.70
67196;DHT22;54122;53.538;49.366;2023-02-18T08:31:20;0.10;59.90
67196;DHT22;54122;53.538;49.366;2023-02-18T08:33:47;0.10;59.50
67196;DHT22;54122;53.538;49.366;2023-02-18T08:36:13;0.20;59.80
67196;DHT22;54122;53.538;49.366;2023-02-18T08:38:40;0.30;59.10
67196;DHT22;54122;53.538;49.366;2023-02-18T08:41:07;0.30;59.20
67196;DHT22;54122;53.538;49.366;2023-02-18T08:43:34;0.20;58.70
67196;DHT22;54122;53.538;49.366;2023-02-18T08:46:01;0.10;58.50
67196;DHT22;54122;53.538;49.366;2023-02-18T08:48:28;0.00;58.70
67196;DHT22;54122;53.538;49.366;2023-02-18T08:50:55;0.10;59.30
67196;DHT22;54122;53.538;49.366;2023-02-18T08:53:21;0.00;58.60
67196;DHT22;54122;53.538;49.366;2023-02-18T08:55:47;-0.20;58.80
67196;DHT22;54122;53.538;49.366;2023-02-18T08:58:13;-0.30;59.60
67196;DHT22;54122;53.538;49.366;2023-02-18T09:00:41;-0.40;59.80
67196;DHT22;54122;53.538;49.366;2023-02-18T09:03:12;-0.50;60.10
67196;DHT22;54122;53.538;49.366;2023-02-18T09:05:39;-0.60;59.70
67196;DHT22;54122;53.538;49.366;2023-02-18T09:08:05;-0.70;60.00
67196;DHT22;54122;53.538;49.366;2023-02-18T09:10:31;-0.90;60.30
67196;DHT22;54122;53.538;49.366;2023-02-18T09:12:58;-1.00;60.10
67196;DHT22;54122;53.538;49.366;2023-02-18T09:15:24;-1.20;60.70
67196;DHT22;54122;53.538;49.366;2023-02-18T09:17:50;-1.20;61.30
67196;DHT22;54122;53.538;49.366;2023-02-18T09:20:17;-1.20;61.80
67196;DHT22;54122;53.538;49.366;2023-02-18T09:22:43;-1.10;62.10
67196;DHT22;54122;53.538;49.366;2023-02-18T09:25:09;-1.00;61.90
67196;DHT22;54122;53.538;49.366;2023-02-18T09:27:35;-1.20;61.80
67196;DHT22;54122;53.538;49.366;2023-02-18T09:30:01;-1.30;62.00
67196;DHT22;54122;53.538;49.366;2023-02-18T09:32:27;-1.30;62.70
67196;DHT22;54122;53.538;49.366;2023-02-18T09:34:54;-1.30;62.60
67196;DHT22;54122;53.538;49.366;2023-02-18T09:37:20;-1.40;62.40
67196;DHT22;54122;53.538;49.366;2023-02-18T09:39:46;-1.60;62.40
67196;DHT22;54122;53.538;49.366;2023-02-18T09:42:15;-1.50;62.90
67196;DHT22;54122;53.538;49.366;2023-02-18T09:44:54;-1.50;62.70
67196;DHT22;54122;53.538;49.366;2023-02-18T09:47:34;-1.40;62.30
67196;DHT22;54122;53.538;49.366;2023-02-18T09:52:35;-1.00;61.90
67196;DHT22;54122;53.538;49.366;2023-02-18T09:57:53;-0.40;62.20
67196;DHT22;54122;53.538;49.366;2023-02-18T10:00:31;-0.10;61.90
67196;DHT22;54122;53.538;49.366;2023-02-18T10:05:27;0.00;59.20
67196;DHT22;54122;53.538;49.366;2023-02-18T10:07:59;0.00;58.80
67196;DHT22;54122;53.538;49.366;2023-02-18T10:10:43;0.00;60.00
67196;DHT22;54122;53.538;49.366;2023-02-18T10:13:19;0.10;59.70
67196;DHT22;54122;53.538;49.366;2023-02-18T10:15:46;0.30;60.00
67196;DHT22;54122;53.538;49.366;2023-02-18T10:18:29;0.50;59.00
67196;DHT22;54122;53.538;49.366;2023-02-18T10:21:06;0.40;58.30
67196;DHT22;54122;53.538;49.366;2023-02-18T10:23:37;0.30;58.50
67196;DHT22;54122;53.538;49.366;2023-02-18T10:26:11;0.20;58.10
67196;DHT22;54122;53.538;49.366;2023-02-18T10:28:38;0.00;57.30
67196;DHT22;54122;53.538;49.366;2023-02-18T10:31:08;-0.30;57.80
67196;DHT22;54122;53.538;49.366;2023-02-18T10:33:46;-0.50;57.80
67196;DHT22;54122;53.538;49.366;2023-02-18T10:36:27;-0.70;58.80
67196;DHT22;54122;53.538;49.366;2023-02-18T10:42:10;-0.60;59.50
67196;DHT22;54122;53.538;49.366;2023-02-18T10:47:50;-0.40;59.10
67196;DHT22;54122;53.538;49.366;2023-02-18T10:50:39;-0.50;58.80
67196;DHT22;54122;53.538;49.366;2023-02-18T10:55:49;-0.50;59.70
67196;DHT22;54122;53.538;49.366;2023-02-18T10:58:34;-0.50;59.40
67196;DHT22;54122;53.538;49.366;2023-02-18T11:01:06;-0.60;59.30
67196;DHT22;54122;53.538;49.366;2023-02-18T11:08:55;-1.10;59.50
67196;DHT22;54122;53.538;49.366;2023-02-18T11:11:30;-1.40;59.70
67196;DHT22;54122;53.538;49.366;2023-02-18T11:14:00;-1.70;60.10
67196;DHT22;54122;53.538;49.366;2023-02-18T11:19:33;-2.10;61.40
67196;DHT22;54122;53.538;49.366;2023-02-18T11:22:18;-2.20;62.10
67196;DHT22;54122;53.538;49.366;2023-02-18T11:24:45;-2.20;62.60
67196;DHT22;54122;53.538;49.366;2023-02-18T11:29:53;-1.90;62.80
67196;DHT22;54122;53.538;49.366;2023-02-18T11:32:21;-1.90;62.70
67196;DHT22;54122;53.538;49.366;2023-02-18T11:34:48;-1.80;62.60
67196;DHT22;54122;53.538;49.366;2023-02-18T11:37:20;-1.70;62.60
67196;DHT22;54122;53.538;49.366;2023-02-18T11:39:52;-1.60;62.20
67196;DHT22;54122;53.538;49.366;2023-02-18T11:42:20;-1.60;61.80
67196;DHT22;54122;53.538;49.366;2023-02-18T11:49:43;-1.30;61.30
67196;DHT22;54122;53.538;49.366;2023-02-18T11:52:17;-1.30;60.80
67196;DHT22;54122;53.538;49.366;2023-02-18T11:55:02;-1.50;60.70
67196;DHT22;54122;53.538;49.366;2023-02-18T11:57:31;-1.70;60.70
67196;DHT22;54122;53.538;49.366;2023-02-18T11:59:59;-1.90;61.00
67196;DHT22;54122;53.538;49.366;2023-02-18T12:05:15;-2.30;61.90
67196;DHT22;54122;53.538;49.366;2023-02-18T12:07:55;-2.50;62.40
67196;DHT22;54122;53.538;49.366;2023-02-18T12:10:28;-2.70;62.60
67196;DHT22;54122;53.538;49.366;2023-02-18T12:18:26;-3.20;63.80
67196;DHT22;54122;53.538;49.366;2023-02-18T12:23:43;-3.50;64.80
67196;DHT22;54122;53.538;49.366;2023-02-18T12:34:48;-3.80;65.70
67196;DHT22;54122;53.538;49.366;2023-02-18T12:43:00;-4.10;66.30
67196;DHT22;54122;53.538;49.366;2023-02-18T12:45:34;-4.20;66.50
67196;DHT22;54122;53.538;49.366;2023-02-18T13:10:20;-5.40;69.50
67196;DHT22;54122;53.538;49.366;2023-02-18T13:15:42;-5.50;70.00
67196;DHT22;54122;53.538;49.366;2023-02-18T13:18:14;-5.60;70.10
67196;DHT22;54122;53.538;49.366;2023-02-18T13:20:54;-5.70;70.30
67196;DHT22;54122;53.538;49.366;2023-02-18T13:23:31;-5.70;70.60
67196;DHT22;54122;53.538;49.366;2023-02-18T13:26:03;-5.80;70.70
67196;DHT22;54122;53.538;49.366;2023-02-18T13:34:13;-6.00;71.20
67196;DHT22;54122;53.538;49.366;2023-02-18T13:36:49;-6.20;71.20
67196;DHT22;54122;53.538;49.366;2023-02-18T13:39:18;-6.30;71.30
67196;DHT22;54122;53.538;49.366;2023-02-18T13:41:48;-6.40;71.20
67196;DHT22;54122;53.538;49.366;2023-02-18T13:46:57;-6.70;71.50
67196;DHT22;54122;53.538;49.366;2023-02-18T13:49:26;-6.80;71.90
67196;DHT22;54122;53.538;49.366;2023-02-18T13:51:57;-6.90;72.10
67196;DHT22;54122;53.538;49.366;2023-02-18T13:54:44;-7.00;72.40
67196;DHT22;54122;53.538;49.366;2023-02-18T13:57:18;-7.10;72.50
67196;DHT22;54122;53.538;49.366;2023-02-18T13:59:56;-7.30;72.60
67196;DHT22;54122;53.538;49.366;2023-02-18T14:04:56;-7.60;72.90
67196;DHT22;54122;53.538;49.366;2023-02-18T14:09:59;-7.80;73.30
67196;DHT22;54122;53.538;49.366;2023-02-18T14:26:05;-8.40;74.60
67196;DHT22;54122;53.538;49.366;2023-02-18T14:51:34;-9.10;75.60
67196;DHT22;54122;53.538;49.366;2023-02-18T14:54:05;-9.20;75.60
67196;DHT22;54122;53.538;49.366;2023-02-18T14:56:37;-9.20;75.70
67196;DHT22;54122;53.538;49.366;2023-02-18T14:59:04;-9.30;75.60
67196;DHT22;54122;53.538;49.366;2023-02-18T15:01:33;-9.30;75.70
67196;DHT22;54122;53.538;49.366;2023-02-18T15:04:01;-9.30;75.90
67196;DHT22;54122;53.538;49.366;2023-02-18T15:06:29;-9.40;75.70
67196;DHT22;54122;53.538;49.366;2023-02-18T15:09:11;-9.40;75.80
67196;DHT22;54122;53.538;49.366;2023-02-18T15:11:51;-9.50;75.90
67196;DHT22;54122;53.538;49.366;2023-02-18T15:14:27;-9.50;76.10
67196;DHT22;54122;53.538;49.366;2023-02-18T15:16:54;-9.60;76.00
67196;DHT22;54122;53.538;49.366;2023-02-18T15:19:24;-9.60;76.00
67196;DHT22;54122;53.538;49.366;2023-02-18T15:21:54;-9.70;76.10
67196;DHT22;54122;53.538;49.366;2023-02-18T15:24:34;-9.70;76.10
67196;DHT22;54122;53.538;49.366;2023-02-18T15:27:05;-9.70;76.10
67196;DHT22;54122;53.538;49.366;2023-02-18T15:29:36;-9.80;76.00
67196;DHT22;54122;53.538;49.366;2023-02-18T15:32:20;-9.80;76.00
67196;DHT22;54122;53.538;49.366;2023-02-18T15:35:01;-9.90;75.90
67196;DHT22;54122;53.538;49.366;2023-02-18T15:37:28;-10.00;75.90
67196;DHT22;54122;53.538;49.366;2023-02-18T15:39:55;-10.00;75.80
67196;DHT22;54122;53.538;49.366;2023-02-18T15:42:30;-10.10;75.70
67196;DHT22;54122;53.538;49.366;2023-02-18T15:47:44;-10.20;75.50
67196;DHT22;54122;53.538;49.366;2023-02-18T15:50:32;-10.30;75.30
67196;DHT22;54122;53.538;49.366;2023-02-18T15:53:07;-10.40;75.40
67196;DHT22;54122;53.538;49.366;2023-02-18T15:55:38;-10.50;75.50
67196;DHT22;54122;53.538;49.366;2023-02-18T15:58:13;-10.60;75.60
67196;DHT22;54122;53.538;49.366;2023-02-18T16:01:02;-10.70;75.70
67196;DHT22;54122;53.538;49.366;2023-02-18T16:03:30;-10.70;75.90
67196;DHT22;54122;53.538;49.366;2023-02-18T16:08:38;-10.80;76.20
67196;DHT22;54122;53.538;49.366;2023-02-18T16:11:08;-10.90;76.20
67196;DHT22;54122;53.538;49.366;2023-02-18T16:13:44;-10.90;76.30
67196;DHT22;54122;53.538;49.366;2023-02-18T16:16:35;-10.90;76.30
67196;DHT22;54122;53.538;49.366;2023-02-18T16:19:02;-10.90;76.30
67196;DHT22;54122;53.538;49.366;2023-02-18T16:21:43;-11.00;76.20
67196;DHT22;54122;53.538;49.366;2023-02-18T16:24:27;-11.00;76.10
67196;DHT22;54122;53.538;49.366;2023-02-18T16:26:56;-11.00;76.10
67196;DHT22;54122;53.538;49.366;2023-02-18T16:29:26;-11.10;76.10
67196;DHT22;54122;53.538;49.366;2023-02-18T16:31:58;-11.10;76.10
67196;DHT22;54122;53.538;49.366;2023-02-18T16:34:25;-11.10;76.10
67196;DHT22;54122;53.538;49.366;2023-02-18T16:36:54;-11.10;76.20
67196;DHT22;54122;53.538;49.366;2023-02-18T16:39:39;-11.10;76.20
67196;DHT22;54122;53.538;49.366;2023-02-18T16:42:12;-11.10;76.10
67196;DHT22;54122;53.538;49.366;2023-02-18T16:44:39;-11.10;76.10
67196;DHT22;54122;53.538;49.366;2023-02-18T16:47:06;-11.10;76.10
67196;DHT22;54122;53.538;49.366;2023-02-18T16:49:33;-11.10;76.20
67196;DHT22;54122;53.538;49.366;2023-02-18T16:52:04;-11.10;76.00
67196;DHT22;54122;53.538;49.366;2023-02-18T16:54:31;-11.20;75.90
67196;DHT22;54122;53.538;49.366;2023-02-18T16:56:57;-11.20;75.90
67196;DHT22;54122;53.538;49.366;2023-02-18T16:59:24;-11.20;76.00
67196;DHT22;54122;53.538;49.366;2023-02-18T17:01:50;-11.20;76.10
67196;DHT22;54122;53.538;49.366;2023-02-18T17:04:17;-11.20;76.10
67196;DHT22;54122;53.538;49.366;2023-02-18T17:06:45;-11.30;75.90
67196;DHT22;54122;53.538;49.366;2023-02-18T17:09:17;-11.30;75.80
67196;DHT22;54122;53.538;49.366;2023-02-18T17:11:49;-11.30;75.60
67196;DHT22;54122;53.538;49.366;2023-02-18T17:14:18;-11.40;75.50
67196;DHT22;54122;53.538;49.366;2023-02-18T17:16:52;-11.50;75.20
67196;DHT22;54122;53.538;49.366;2023-02-18T17:19:19;-11.60;75.30
67196;DHT22;54122;53.538;49.366;2023-02-18T17:21:46;-11.70;75.30
67196;DHT22;54122;53.538;49.366;2023-02-18T17:24:13;-11.70;75.30
67196;DHT22;54122;53.538;49.366;2023-02-18T17:26:44;-11.80;75.40
67196;DHT22;54122;53.538;49.366;2023-02-18T17:29:11;-11.90;75.40
67196;DHT22;54122;53.538;49.366;2023-02-18T17:31:39;-11.90;75.50
67196;DHT22;54122;53.538;49.366;2023-02-18T17:34:14;-11.90;75.60
67196;DHT22;54122;53.538;49.366;2023-02-18T17:36:41;-11.90;75.80
67196;DHT22;54122;53.538;49.366;2023-02-18T17:39:15;-11.90;75.90
67196;DHT22;54122;53.538;49.366;2023-02-18T17:41:42;-11.90;75.80
67196;DHT22;54122;53.538;49.366;2023-02-18T17:44:20;-11.90;75.70
67196;DHT22;54122;53.538;49.366;2023-02-18T17:46:47;-12.00;75.70
67196;DHT22;54122;53.538;49.366;2023-02-18T17:49:17;-12.00;75.80
67196;DHT22;54122;53.538;49.366;2023-02-18T17:51:43;-12.10;75.90
67196;DHT22;54122;53.538;49.366;2023-02-18T17:54:15;-12.10;75.90
67196;DHT22;54122;53.538;49.366;2023-02-18T17:56:41;-12.00;75.90
67196;DHT22;54122;53.538;49.366;2023-02-18T17:59:08;-11.90;75.90
67196;DHT22;54122;53.538;49.366;2023-02-18T18:01:38;-11.70;75.90
67196;DHT22;54122;53.538;49.366;2023-02-18T18:04:13;-11.70;75.40
67196;DHT22;54122;53.538;49.366;2023-02-18T18:06:39;-11.70;75.00
67196;DHT22;54122;53.538;49.366;2023-02-18T18:09:07;-11.80;74.70
67196;DHT22;54122;53.538;49.366;2023-02-18T18:11:34;-11.90;74.80
67196;DHT22;54122;53.538;49.366;2023-02-18T18:14:00;-12.10;74.80
67196;DHT22;54122;53.538;49.366;2023-02-18T18:16:26;-12.20;74.80
67196;DHT22;54122;53.538;49.366;2023-02-18T18:18:53;-12.30;75.00
67196;DHT22;54122;53.538;49.366;2023-02-18T18:21:32;-12.40;75.30
67196;DHT22;54122;53.538;49.366;2023-02-18T18:23:59;-12.50;75.40